createdAt,value
2023-01-19T00:01:41.650Z,86.70
2023-01-19T00:04:09.491Z,86.65
2023-01-19T00:06:37.270Z,86.56
2023-01-19T00:09:05.083Z,86.47
2023-01-19T00:11:32.841Z,86.34
2023-01-19T00:14:00.586Z,86.24
2023-01-19T00:16:29.766Z,86.06
2023-01-19T00:18:57.586Z,86.03
2023-01-19T00:21:25.334Z,85.84
2023-01-19T00:23:53.135Z,85.80
2023-01-19T00:26:23.636Z,85.86
2023-01-19T00:28:52.917Z,86.35
2023-01-19T00:31:21.652Z,86.46
2023-01-19T00:33:52.632Z,86.17
2023-01-19T00:36:20.736Z,86.48
2023-01-19T00:38:48.514Z,86.34
2023-01-19T00:41:16.384Z,86.55
2023-01-19T00:43:43.393Z,86.46
2023-01-19T00:46:11.638Z,86.48
2023-01-19T00:48:39.433Z,86.79
2023-01-19T00:51:08.560Z,86.49
2023-01-19T00:53:36.290Z,86.63
2023-01-19T00:56:04.091Z,86.46
2023-01-19T00:58:31.858Z,87.35
2023-01-19T01:01:03.692Z,86.84
2023-01-19T01:03:31.720Z,87.09
2023-01-19T01:05:59.608Z,87.06
2023-01-19T01:08:28.717Z,86.65
2023-01-19T01:10:56.863Z,87.12
2023-01-19T01:13:27.311Z,86.74
2023-01-19T01:15:56.932Z,87.10
2023-01-19T01:18:25.586Z,86.81
2023-01-19T01:20:55.319Z,86.75
2023-01-19T01:23:24.215Z,86.76
2023-01-19T01:25:53.731Z,86.77
2023-01-19T01:28:21.491Z,86.67
2023-01-19T01:30:49.357Z,86.69
2023-01-19T01:33:39.851Z,86.67
2023-01-19T01:36:05.431Z,86.83
2023-01-19T01:38:33.209Z,86.59
2023-01-19T01:41:02.274Z,86.97
2023-01-19T01:43:43.844Z,87.04
2023-01-19T01:46:15.382Z,87.11
2023-01-19T01:48:45.510Z,87.24
2023-01-19T01:51:27.884Z,87.76
2023-01-19T01:54:09.460Z,87.40
2023-01-19T01:56:41.266Z,87.36
2023-01-19T01:59:12.360Z,87.88
2023-01-19T02:01:58.178Z,87.65
2023-01-19T02:04:27.747Z,87.76
2023-01-19T02:07:15.677Z,87.86
2023-01-19T02:10:00.984Z,87.67
2023-01-19T02:12:48.201Z,88.15
2023-01-19T02:15:17.609Z,87.82
2023-01-19T02:17:45.235Z,87.83
2023-01-19T02:20:14.175Z,87.68
2023-01-19T02:22:48.907Z,87.86
2023-01-19T02:25:20.087Z,88.29
2023-01-19T02:27:50.134Z,87.77
2023-01-19T02:30:18.911Z,88.05
2023-01-19T02:32:46.903Z,87.68
2023-01-19T02:35:14.866Z,87.87
2023-01-19T02:37:44.737Z,87.66
2023-01-19T02:40:15.702Z,87.83
2023-01-19T02:42:47.943Z,87.60
2023-01-19T02:45:22.960Z,87.59
2023-01-19T02:47:52.720Z,87.82
2023-01-19T02:50:49.167Z,87.63
2023-01-19T02:53:40.595Z,87.71
2023-01-19T02:56:27.858Z,87.59
2023-01-19T02:59:02.326Z,87.67
2023-01-19T03:01:41.368Z,87.60
2023-01-19T03:04:17.191Z,87.61
2023-01-19T03:06:50.389Z,87.48
2023-01-19T03:09:26.213Z,87.00
2023-01-19T03:12:02.236Z,87.14
2023-01-19T03:14:34.692Z,87.43
2023-01-19T03:17:06.859Z,87.16
2023-01-19T03:19:37.523Z,87.04
2023-01-19T03:22:11.838Z,87.15
2023-01-19T03:24:43.373Z,87.38
2023-01-19T03:27:14.895Z,87.07
2023-01-19T03:29:50.780Z,87.43
2023-01-19T03:32:22.831Z,87.24
2023-01-19T03:34:52.471Z,86.75
2023-01-19T03:37:21.488Z,86.39
2023-01-19T03:39:49.302Z,86.30
2023-01-19T03:42:18.735Z,85.94
2023-01-19T03:44:50.539Z,86.00
2023-01-19T03:47:20.347Z,86.15
2023-01-19T03:49:48.888Z,86.11
2023-01-19T03:52:16.682Z,86.23
2023-01-19T03:54:44.565Z,86.37
2023-01-19T03:57:12.846Z,86.50
2023-01-19T03:59:40.837Z,86.52
2023-01-19T04:02:10.027Z,86.47
2023-01-19T04:04:37.794Z,86.24
2023-01-19T04:07:05.576Z,86.28
2023-01-19T04:09:33.501Z,86.20
2023-01-19T04:12:01.895Z,86.39
2023-01-19T04:14:29.672Z,86.25
2023-01-19T04:16:57.490Z,86.37
2023-01-19T04:19:26.734Z,86.30
2023-01-19T04:21:55.368Z,86.18
2023-01-19T04:24:23.173Z,86.20
2023-01-19T04:26:52.649Z,86.13
2023-01-19T04:29:20.344Z,86.13
2023-01-19T04:31:48.136Z,86.07
2023-01-19T04:34:15.895Z,85.86
2023-01-19T04:36:46.654Z,86.21
2023-01-19T04:39:14.444Z,86.34
2023-01-19T04:41:42.208Z,85.88
2023-01-19T04:44:10.038Z,85.50
2023-01-19T04:46:37.823Z,85.80
2023-01-19T04:49:05.559Z,85.81
2023-01-19T04:51:34.244Z,85.90
2023-01-19T04:54:03.962Z,85.48
2023-01-19T04:56:31.782Z,85.81
2023-01-19T04:58:59.548Z,85.38
2023-01-19T05:01:27.491Z,85.72
2023-01-19T05:03:55.375Z,85.81
2023-01-19T05:06:23.131Z,86.30
2023-01-19T05:08:50.925Z,86.21
2023-01-19T05:11:20.028Z,86.10
2023-01-19T05:13:48.475Z,86.59
2023-01-19T05:16:17.475Z,86.85
2023-01-19T05:18:45.268Z,87.23
2023-01-19T05:21:13.243Z,87.40
2023-01-19T05:23:41.157Z,87.95
2023-01-19T05:26:10.477Z,88.38
2023-01-19T05:28:39.469Z,88.56
2023-01-19T05:31:07.504Z,89.07
2023-01-19T05:33:35.377Z,89.60
2023-01-19T05:36:04.247Z,89.72
2023-01-19T05:38:35.957Z,89.39
2023-01-19T05:41:04.082Z,89.50
2023-01-19T05:43:31.906Z,89.95
2023-01-19T05:46:00.999Z,90.22
2023-01-19T05:48:28.789Z,90.69
2023-01-19T05:50:59.118Z,90.72
2023-01-19T05:53:27.560Z,91.15
2023-01-19T05:56:00.601Z,91.07
2023-01-19T05:58:28.773Z,91.13
2023-01-19T06:00:56.638Z,90.93
2023-01-19T06:03:25.861Z,91.25
2023-01-19T06:05:53.604Z,91.07
2023-01-19T06:08:21.385Z,91.38
2023-01-19T06:10:49.139Z,91.45
2023-01-19T06:13:17.429Z,91.58
2023-01-19T06:15:45.233Z,91.22
2023-01-19T06:18:13.005Z,91.25
2023-01-19T06:20:42.132Z,91.34
2023-01-19T06:23:10.593Z,91.18
2023-01-19T06:25:38.532Z,91.46
2023-01-19T06:28:06.395Z,91.19
2023-01-19T06:30:34.238Z,91.40
2023-01-19T06:33:02.435Z,91.26
2023-01-19T06:35:30.556Z,91.30
2023-01-19T06:37:59.679Z,91.68
2023-01-19T06:40:27.423Z,91.65
2023-01-19T06:42:55.320Z,91.18
2023-01-19T06:45:23.187Z,92.10
2023-01-19T06:47:50.955Z,91.74
2023-01-19T06:50:18.752Z,91.67
2023-01-19T06:52:46.480Z,91.29
2023-01-19T06:55:16.209Z,90.82
2023-01-19T06:57:44.357Z,91.63
2023-01-19T07:00:14.824Z,91.53
2023-01-19T07:02:43.619Z,91.07
2023-01-19T07:05:14.264Z,91.01
2023-01-19T07:07:43.148Z,90.68
2023-01-19T07:10:13.003Z,91.19
2023-01-19T07:12:42.201Z,91.16
2023-01-19T07:15:11.682Z,91.61
2023-01-19T07:17:39.475Z,91.40
2023-01-19T07:20:08.842Z,91.60
2023-01-19T07:22:36.412Z,92.42
2023-01-19T07:25:04.781Z,92.23
2023-01-19T07:27:32.527Z,92.81
2023-01-19T07:30:01.757Z,93.29
2023-01-19T07:32:29.964Z,91.81
2023-01-19T07:34:57.831Z,91.58
2023-01-19T07:37:25.657Z,92.10
2023-01-19T07:39:53.409Z,92.32
2023-01-19T07:42:21.187Z,93.32
2023-01-19T07:44:49.481Z,92.45
2023-01-19T07:47:18.671Z,92.36
2023-01-19T07:49:46.650Z,92.51
2023-01-19T07:52:14.473Z,92.34
2023-01-19T07:54:42.298Z,92.33
2023-01-19T07:57:10.103Z,92.11
2023-01-19T07:59:38.706Z,91.97
2023-01-19T08:02:07.872Z,91.77
2023-01-19T08:04:37.325Z,91.42
2023-01-19T08:07:05.130Z,91.17
2023-01-19T08:09:32.996Z,92.21
2023-01-19T08:12:00.784Z,90.39
2023-01-19T08:14:28.546Z,90.48
2023-01-19T08:17:00.358Z,90.10
2023-01-19T08:19:28.271Z,90.27
2023-01-19T08:21:59.001Z,90.54
2023-01-19T08:24:29.029Z,90.96
2023-01-19T08:27:00.179Z,91.10
2023-01-19T08:29:30.593Z,90.17
2023-01-19T08:32:00.126Z,90.68
2023-01-19T08:34:31.953Z,90.21
2023-01-19T08:37:01.189Z,89.86
2023-01-19T08:39:29.001Z,90.43
2023-01-19T08:41:56.923Z,89.92
2023-01-19T08:44:24.684Z,90.06
2023-01-19T08:46:52.437Z,89.93
2023-01-19T08:49:20.589Z,89.77
2023-01-19T08:51:49.087Z,89.73
2023-01-19T08:54:18.770Z,89.58
2023-01-19T08:56:46.580Z,89.66
2023-01-19T08:59:14.403Z,89.94
2023-01-19T09:01:42.469Z,89.76
2023-01-19T09:04:10.357Z,89.78
2023-01-19T09:06:38.212Z,89.74
2023-01-19T09:09:06.021Z,89.78
2023-01-19T09:11:35.158Z,89.64
2023-01-19T09:14:03.210Z,89.44
2023-01-19T09:16:30.990Z,89.89
2023-01-19T09:18:58.738Z,89.47
2023-01-19T09:21:26.651Z,89.34
2023-01-19T09:23:54.690Z,88.87
2023-01-19T09:26:23.701Z,89.84
2023-01-19T09:28:52.925Z,89.12
2023-01-19T09:31:21.469Z,88.33
2023-01-19T09:33:49.296Z,88.24
2023-01-19T09:36:17.071Z,88.57
2023-01-19T09:38:44.835Z,88.28
2023-01-19T09:41:18.175Z,88.83
2023-01-19T09:43:49.047Z,88.84
2023-01-19T09:46:22.514Z,88.98
2023-01-19T09:48:53.269Z,89.14
2023-01-19T09:51:24.544Z,89.09
2023-01-19T09:53:57.339Z,89.03
2023-01-19T09:56:26.144Z,89.27
2023-01-19T09:58:54.128Z,89.43
2023-01-19T10:01:37.273Z,88.80
2023-01-19T10:04:30.937Z,88.42
2023-01-19T10:07:07.675Z,88.02
2023-01-19T10:09:42.731Z,88.18
2023-01-19T10:12:23.302Z,87.06
2023-01-19T10:14:58.558Z,87.30
2023-01-19T10:17:39.964Z,87.03
2023-01-19T10:20:16.034Z,87.21
2023-01-19T10:22:46.243Z,87.24
2023-01-19T10:25:19.816Z,87.39
2023-01-19T10:27:48.168Z,87.17
2023-01-19T10:30:22.575Z,87.35
2023-01-19T10:32:52.689Z,87.58
2023-01-19T10:35:24.982Z,87.74
2023-01-19T10:37:56.074Z,87.89
2023-01-19T10:40:34.744Z,87.91
2023-01-19T10:43:03.010Z,87.94
2023-01-19T10:45:32.539Z,87.81
2023-01-19T10:48:08.231Z,87.72
2023-01-19T10:50:39.740Z,87.85
2023-01-19T10:53:20.451Z,87.86
2023-01-19T10:55:48.272Z,88.22
2023-01-19T10:58:28.964Z,87.66
2023-01-19T11:00:56.881Z,87.89
2023-01-19T11:03:29.259Z,88.22
2023-01-19T11:06:23.255Z,88.32
2023-01-19T11:08:54.064Z,88.06
2023-01-19T11:11:22.981Z,88.11
2023-01-19T11:14:08.059Z,87.96
2023-01-19T11:16:38.144Z,88.25
2023-01-19T11:19:20.119Z,88.20
2023-01-19T11:21:47.917Z,88.08
2023-01-19T11:24:16.504Z,88.37
2023-01-19T11:26:47.904Z,88.23
2023-01-19T11:29:20.132Z,87.99
2023-01-19T11:31:48.846Z,88.13
2023-01-19T11:34:33.136Z,88.14
2023-01-19T11:37:03.653Z,88.28
2023-01-19T11:39:33.051Z,87.89
2023-01-19T11:42:03.318Z,88.00
2023-01-19T11:44:34.255Z,87.89
2023-01-19T11:47:04.442Z,88.08
2023-01-19T11:49:43.357Z,88.23
2023-01-19T11:52:25.095Z,87.98
2023-01-19T11:54:57.171Z,87.78
2023-01-19T11:57:25.709Z,88.02
2023-01-19T11:59:54.554Z,87.95
2023-01-19T12:02:28.040Z,88.09
2023-01-19T12:05:01.316Z,88.37
2023-01-19T12:07:32.753Z,87.84
2023-01-19T12:10:19.840Z,87.92
2023-01-19T12:12:49.173Z,88.15
2023-01-19T12:15:22.363Z,88.07
2023-01-19T12:17:52.295Z,88.11
2023-01-19T12:20:28.965Z,88.12
2023-01-19T12:23:06.143Z,87.75
2023-01-19T12:25:48.867Z,87.49
2023-01-19T12:28:19.147Z,87.42
2023-01-19T12:30:47.207Z,87.40
2023-01-19T12:33:22.220Z,87.44
2023-01-19T12:35:59.563Z,86.79
2023-01-19T12:38:47.372Z,86.55
2023-01-19T12:41:31.098Z,86.40
2023-01-19T12:44:27.677Z,86.08
2023-01-19T12:46:57.544Z,85.90
2023-01-19T12:49:32.554Z,85.92
2023-01-19T12:52:24.968Z,85.79
2023-01-19T12:54:58.293Z,85.59
2023-01-19T12:57:30.707Z,85.61
2023-01-19T13:00:00.347Z,85.29
2023-01-19T13:02:54.080Z,84.35
2023-01-19T13:05:25.755Z,84.35
2023-01-19T13:08:23.750Z,84.15
2023-01-19T13:11:19.558Z,84.38
2023-01-19T13:14:27.350Z,84.08
2023-01-19T13:17:07.155Z,84.24
2023-01-19T13:19:50.825Z,84.59
2023-01-19T13:22:52.248Z,84.49
2023-01-19T13:25:30.792Z,84.39
2023-01-19T13:27:58.910Z,84.57
2023-01-19T13:30:28.879Z,84.65
2023-01-19T13:33:02.451Z,84.63
2023-01-19T13:35:30.352Z,84.15
2023-01-19T13:37:59.932Z,84.60
2023-01-19T13:40:38.117Z,84.14
2023-01-19T13:43:13.807Z,84.55
2023-01-19T13:45:41.957Z,84.51
2023-01-19T13:48:15.662Z,84.77
2023-01-19T13:50:45.346Z,84.33
2023-01-19T13:53:20.507Z,84.63
2023-01-19T13:55:49.743Z,84.39
2023-01-19T13:58:22.199Z,84.56
2023-01-19T14:00:50.303Z,84.25
2023-01-19T14:03:23.629Z,84.13
2023-01-19T14:05:52.746Z,84.49
2023-01-19T14:08:21.180Z,84.85
2023-01-19T14:11:02.162Z,84.91
2023-01-19T14:13:31.502Z,85.14
2023-01-19T14:16:00.253Z,84.54
2023-01-19T14:18:30.199Z,84.80
2023-01-19T14:21:01.212Z,84.77
2023-01-19T14:23:44.054Z,84.84
2023-01-19T14:26:43.257Z,84.39
2023-01-19T14:29:28.866Z,84.75
2023-01-19T14:32:12.271Z,84.36
2023-01-19T14:34:41.652Z,84.44
2023-01-19T14:37:30.240Z,84.40
2023-01-19T14:40:04.626Z,84.75
2023-01-19T14:42:36.953Z,84.89
2023-01-19T14:45:09.029Z,84.76
2023-01-19T14:47:39.622Z,84.44
2023-01-19T14:50:18.630Z,84.34
2023-01-19T14:52:53.531Z,83.85
2023-01-19T14:55:24.934Z,83.84
2023-01-19T14:57:55.206Z,83.67
2023-01-19T15:00:23.536Z,83.87
2023-01-19T15:02:51.335Z,83.62
2023-01-19T15:05:19.418Z,83.62
2023-01-19T15:07:47.883Z,83.83
2023-01-19T15:10:20.617Z,83.95
2023-01-19T15:12:49.167Z,83.86
2023-01-19T15:15:25.816Z,83.95
2023-01-19T15:17:56.286Z,83.85
2023-01-19T15:20:24.380Z,83.54
2023-01-19T15:22:52.141Z,83.45
2023-01-19T15:25:21.856Z,83.23
2023-01-19T15:27:50.319Z,83.24
2023-01-19T15:30:22.404Z,82.98
2023-01-19T15:32:50.393Z,83.26
2023-01-19T15:35:20.704Z,83.30
2023-01-19T15:37:49.671Z,83.51
2023-01-19T15:40:19.972Z,83.62
2023-01-19T15:42:47.844Z,84.31
2023-01-19T15:45:32.704Z,84.59
2023-01-19T15:48:01.495Z,84.60
2023-01-19T15:50:29.459Z,84.80
2023-01-19T15:52:57.307Z,84.98
2023-01-19T15:55:25.330Z,84.70
2023-01-19T15:57:53.487Z,85.28
2023-01-19T16:00:22.859Z,84.96
2023-01-19T16:02:52.116Z,84.07
2023-01-19T16:05:20.664Z,84.14
2023-01-19T16:07:49.203Z,83.72
2023-01-19T16:10:17.270Z,83.42
2023-01-19T16:12:45.361Z,83.60
2023-01-19T16:15:13.527Z,83.22
2023-01-19T16:17:42.719Z,83.24
2023-01-19T16:20:14.438Z,83.45
2023-01-19T16:22:42.554Z,83.14
2023-01-19T16:25:10.972Z,83.33
2023-01-19T16:27:38.835Z,83.00
2023-01-19T16:30:07.993Z,83.36
2023-01-19T16:32:36.400Z,83.27
2023-01-19T16:35:06.226Z,83.08
2023-01-19T16:37:34.049Z,83.01
2023-01-19T16:40:01.872Z,83.25
2023-01-19T16:42:29.738Z,82.81
2023-01-19T16:44:57.555Z,82.81
2023-01-19T16:47:25.427Z,82.78
2023-01-19T16:49:53.272Z,83.01
2023-01-19T16:52:22.514Z,82.52
2023-01-19T16:54:54.517Z,82.66
2023-01-19T16:57:22.280Z,82.79
2023-01-19T16:59:51.386Z,82.91
2023-01-19T17:02:19.401Z,82.96
2023-01-19T17:04:47.176Z,82.81
2023-01-19T17:07:14.977Z,82.80
2023-01-19T17:09:44.050Z,82.65
2023-01-19T17:12:12.590Z,82.79
2023-01-19T17:14:40.397Z,82.60
2023-01-19T17:17:09.338Z,82.66
2023-01-19T17:19:37.263Z,82.87
2023-01-19T17:22:05.154Z,83.03
2023-01-19T17:24:33.347Z,83.31
2023-01-19T17:27:02.602Z,83.86
2023-01-19T17:29:30.463Z,84.00
2023-01-19T17:31:58.214Z,83.67
2023-01-19T17:34:26.034Z,83.99
2023-01-19T17:36:56.665Z,83.93
2023-01-19T17:39:24.448Z,84.15
2023-01-19T17:41:52.195Z,84.37
2023-01-19T17:44:21.314Z,84.83
2023-01-19T17:46:49.136Z,85.39
2023-01-19T17:49:16.991Z,85.25
2023-01-19T17:51:44.800Z,85.62
2023-01-19T17:54:13.963Z,85.98
2023-01-19T17:56:41.874Z,86.33
2023-01-19T17:59:09.797Z,85.74
2023-01-19T18:01:40.544Z,85.37
2023-01-19T18:04:09.719Z,85.34
2023-01-19T18:06:37.571Z,84.94
2023-01-19T18:09:06.846Z,84.50
2023-01-19T18:11:35.112Z,84.31
2023-01-19T18:14:02.917Z,84.56
2023-01-19T18:16:32.475Z,84.89
2023-01-19T18:19:01.642Z,85.08
2023-01-19T18:21:30.459Z,85.43
2023-01-19T18:24:03.064Z,85.92
2023-01-19T18:26:32.266Z,85.94
2023-01-19T18:29:00.846Z,85.67
2023-01-19T18:31:28.923Z,85.70
2023-01-19T18:33:56.774Z,85.70
2023-01-19T18:36:25.936Z,85.87
2023-01-19T18:38:53.881Z,86.26
2023-01-19T18:41:22.393Z,86.74
2023-01-19T18:43:51.946Z,86.80
2023-01-19T18:46:21.117Z,86.95
2023-01-19T18:48:48.940Z,87.06
2023-01-19T18:51:17.843Z,86.72
2023-01-19T18:53:47.118Z,86.80
2023-01-19T18:56:16.612Z,86.94
2023-01-19T18:58:45.207Z,86.75
2023-01-19T19:01:22.972Z,86.76
2023-01-19T19:03:51.297Z,87.09
2023-01-19T19:06:20.774Z,87.23
2023-01-19T19:08:51.131Z,87.52
2023-01-19T19:11:21.967Z,87.56
2023-01-19T19:13:53.208Z,87.38
2023-01-19T19:16:21.079Z,87.49
2023-01-19T19:18:49.938Z,87.64
2023-01-19T19:21:18.858Z,88.32
2023-01-19T19:23:53.017Z,88.79
2023-01-19T19:26:21.237Z,89.10
2023-01-19T19:28:48.978Z,89.37
2023-01-19T19:31:20.439Z,89.23
2023-01-19T19:33:50.683Z,89.25
2023-01-19T19:36:19.816Z,89.40
2023-01-19T19:38:47.826Z,89.30
2023-01-19T19:41:18.860Z,89.29
2023-01-19T19:43:46.783Z,89.47
2023-01-19T19:46:17.742Z,89.51
2023-01-19T19:48:45.640Z,89.38
2023-01-19T19:51:19.378Z,89.47
2023-01-19T19:53:50.902Z,89.27
2023-01-19T19:56:21.859Z,89.19
2023-01-19T19:58:51.344Z,89.26
2023-01-19T20:01:21.180Z,89.00
2023-01-19T20:03:49.538Z,89.02
2023-01-19T20:06:20.784Z,88.88
2023-01-19T20:08:49.022Z,89.09
2023-01-19T20:11:19.094Z,89.23
2023-01-19T20:13:48.656Z,89.52
2023-01-19T20:16:18.334Z,89.61
2023-01-19T20:18:51.079Z,88.95
2023-01-19T20:21:21.191Z,88.85
2023-01-19T20:23:50.470Z,88.70
2023-01-19T20:26:19.984Z,89.01
2023-01-19T20:28:49.113Z,88.95
2023-01-19T20:31:19.386Z,88.90
2023-01-19T20:33:48.022Z,89.28
2023-01-19T20:36:16.344Z,89.10
2023-01-19T20:38:44.346Z,88.87
2023-01-19T20:41:13.662Z,88.59
2023-01-19T20:43:41.249Z,88.70
2023-01-19T20:46:10.955Z,88.67
2023-01-19T20:48:39.507Z,88.69
2023-01-19T20:51:09.945Z,88.98
2023-01-19T20:53:38.147Z,88.98
2023-01-19T20:56:06.837Z,88.88
2023-01-19T20:58:37.398Z,88.82
2023-01-19T21:01:12.722Z,88.82
2023-01-19T21:03:40.596Z,88.64
2023-01-19T21:06:09.189Z,88.44
2023-01-19T21:08:37.168Z,88.26
2023-01-19T21:11:05.556Z,88.11
2023-01-19T21:13:33.607Z,88.00
2023-01-19T21:16:02.136Z,87.78
2023-01-19T21:18:31.422Z,87.88
2023-01-19T21:20:59.512Z,87.85
2023-01-19T21:23:28.277Z,87.99
2023-01-19T21:25:58.318Z,88.30
2023-01-19T21:28:27.040Z,88.37
2023-01-19T21:30:55.881Z,88.69
2023-01-19T21:33:24.398Z,88.84
2023-01-19T21:35:54.481Z,88.98
2023-01-19T21:38:22.709Z,89.01
2023-01-19T21:40:51.220Z,89.13
2023-01-19T21:43:19.952Z,89.23
2023-01-19T21:45:48.807Z,88.97
2023-01-19T21:48:18.209Z,88.82
2023-01-19T21:50:45.818Z,88.54
2023-01-19T21:53:14.918Z,88.49
2023-01-19T21:55:45.082Z,88.51
2023-01-19T21:58:12.917Z,88.34
2023-01-19T22:00:40.974Z,88.49
2023-01-19T22:03:08.889Z,88.41
2023-01-19T22:05:37.220Z,88.52
2023-01-19T22:08:06.205Z,88.70
2023-01-19T22:10:38.088Z,88.92
2023-01-19T22:13:06.701Z,88.96
2023-01-19T22:15:34.662Z,88.93
2023-01-19T22:18:02.393Z,89.05
2023-01-19T22:20:30.273Z,89.39
2023-01-19T22:22:58.162Z,89.33
2023-01-19T22:25:27.949Z,89.29
2023-01-19T22:27:58.547Z,89.54
2023-01-19T22:30:26.544Z,89.81
2023-01-19T22:32:54.445Z,90.19
2023-01-19T22:35:22.243Z,90.16
2023-01-19T22:37:49.991Z,90.61
2023-01-19T22:40:18.614Z,90.99
2023-01-19T22:42:47.744Z,91.01
2023-01-19T22:45:17.096Z,91.05
2023-01-19T22:47:44.984Z,90.89
2023-01-19T22:50:12.969Z,90.51
2023-01-19T22:52:41.449Z,90.09
2023-01-19T22:55:10.201Z,89.71
2023-01-19T22:57:38.316Z,89.55
2023-01-19T23:00:08.929Z,89.24
2023-01-19T23:02:38.083Z,89.16
2023-01-19T23:05:06.661Z,89.20
2023-01-19T23:07:34.525Z,89.03
2023-01-19T23:10:02.311Z,89.10
2023-01-19T23:12:30.133Z,89.35
2023-01-19T23:14:57.851Z,89.38
2023-01-19T23:17:25.614Z,89.56
2023-01-19T23:19:55.092Z,89.74
2023-01-19T23:22:22.678Z,89.73
2023-01-19T23:24:50.448Z,90.02
2023-01-19T23:27:18.183Z,89.96
2023-01-19T23:29:46.219Z,90.64
2023-01-19T23:32:14.027Z,90.57
2023-01-19T23:34:41.988Z,90.31
2023-01-19T23:37:11.115Z,90.29
2023-01-19T23:39:38.915Z,90.26
2023-01-19T23:42:08.117Z,90.21
2023-01-19T23:44:36.046Z,90.21
2023-01-19T23:47:03.813Z,89.97
2023-01-19T23:49:31.613Z,89.67
2023-01-19T23:51:59.392Z,89.28
2023-01-19T23:54:28.538Z,89.31
2023-01-19T23:56:56.249Z,89.18
2023-01-19T23:59:23.986Z,89.48
